Time;durP1;ratioP1;P1;durP2;ratioP2;P2;SDS_P1;SDS_P2;PMS_P1;PMS_P2;Temp;Humidity;BMP_temperature;BMP_pressure;BME280_temperature;BME280_humidity;BME280_pressure;Samples;Min_cycle;Max_cycle;Signal;HPM_P1;HPM_P2
2023/02/13 00:01:36;;;;;;;;;;;-0.80;77.70;;;;;;5002675;28;89306;-37
2023/02/13 00:04:03;;;;;;;;;;;-0.90;77.70;;;;;;5002527;28;87090;-37
2023/02/13 00:06:29;;;;;;;;;;;-0.90;77.70;;;;;;5001740;28;88483;-38
2023/02/13 00:08:54;;;;;;;;;;;-0.90;77.80;;;;;;5002422;28;89289;-38
2023/02/13 00:11:20;;;;;;;;;;;-0.80;77.80;;;;;;5002612;28;87116;-38
2023/02/13 00:13:45;;;;;;;;;;;-0.90;77.70;;;;;;5003003;28;87124;-38
2023/02/13 00:16:11;;;;;;;;;;;-0.80;77.70;;;;;;5005162;28;89593;-38
2023/02/13 00:18:37;;;;;;;;;;;-0.90;77.80;;;;;;5002603;28;88656;-38
2023/02/13 00:21:04;;;;;;;;;;;-0.90;77.90;;;;;;5002716;28;87804;-38
2023/02/13 00:23:30;;;;;;;;;;;-0.90;77.70;;;;;;5003016;28;86352;-38
2023/02/13 00:25:56;;;;;;;;;;;-0.90;77.70;;;;;;5002801;28;87069;-37
2023/02/13 00:28:22;;;;;;;;;;;-0.90;77.70;;;;;;5002151;28;89193;-38
2023/02/13 00:30:47;;;;;;;;;;;-0.90;77.70;;;;;;5002091;28;88160;-37
2023/02/13 00:33:13;;;;;;;;;;;-0.90;77.80;;;;;;5002181;28;89688;-37
2023/02/13 00:35:39;;;;;;;;;;;-0.90;77.80;;;;;;5002082;28;89184;-37
2023/02/13 00:38:04;;;;;;;;;;;-0.90;77.80;;;;;;5005183;28;87219;-38
2023/02/13 00:40:30;;;;;;;;;;;-0.90;77.80;;;;;;5002190;28;88038;-38
2023/02/13 00:42:55;;;;;;;;;;;-0.90;78.40;;;;;;5002374;28;87170;-38
2023/02/13 00:45:21;;;;;;;;;;;-0.90;77.70;;;;;;5002667;28;87439;-37
2023/02/13 00:47:46;;;;;;;;;;;-0.90;77.80;;;;;;5002435;28;88485;-37
2023/02/13 00:50:12;;;;;;;;;;;-0.90;77.90;;;;;;5002271;28;87124;-37
2023/02/13 00:52:37;;;;;;;;;;;-0.90;77.80;;;;;;5002239;28;88812;-37
2023/02/13 00:55:03;;;;;;;;;;;-0.90;77.70;;;;;;5001263;28;90172;-38
2023/02/13 00:57:30;;;;;;;;;;;-0.90;77.70;;;;;;5002035;28;87202;-38
2023/02/13 00:59:56;;;;;;;;;;;-0.90;77.70;;;;;;5004815;28;88756;-38
2023/02/13 01:02:21;;;;;;;;;;;-0.90;77.70;;;;;;5002234;28;87108;-37
2023/02/13 01:04:47;;;;;;;;;;;-0.90;77.80;;;;;;5002098;28;87946;-38
2023/02/13 01:07:12;;;;;;;;;;;-0.90;77.80;;;;;;5002948;28;89987;-37
2023/02/13 01:09:38;;;;;;;;;;;-0.90;77.80;;;;;;5005460;28;87527;-37
2023/02/13 01:12:03;;;;;;;;;;;-0.90;77.80;;;;;;5006086;28;87983;-38
2023/02/13 01:14:29;;;;;;;;;;;-0.90;77.70;;;;;;5005046;28;89533;-37
2023/02/13 01:16:54;;;;;;;;;;;-0.90;77.80;;;;;;5005349;28;87063;-37
2023/02/13 01:19:20;;;;;;;;;;;-1.00;77.70;;;;;;5007338;28;88063;-37
2023/02/13 01:21:45;;;;;;;;;;;-1.00;77.80;;;;;;5005577;28;87087;-37
2023/02/13 01:24:11;;;;;;;;;;;-1.00;77.90;;;;;;5005622;28;87679;-38
2023/02/13 01:26:37;;;;;;;;;;;-1.00;77.80;;;;;;5004809;28;89662;-38
2023/02/13 01:29:02;;;;;;;;;;;-1.00;77.80;;;;;;5005322;28;87173;-38
2023/02/13 01:31:28;;;;;;;;;;;-1.00;77.80;;;;;;5005352;28;88881;-37
2023/02/13 01:33:57;;;;;;;;;;;-0.90;77.80;;;;;;5004782;28;88666;-37
2023/02/13 01:36:23;;;;;;;;;;;-1.00;77.80;;;;;;5005884;28;86327;-37
2023/02/13 01:38:51;;;;;;;;;;;-1.00;77.90;;;;;;5005614;28;87000;-37
2023/02/13 01:41:16;;;;;;;;;;;-1.00;77.90;;;;;;5007660;28;88235;-38
2023/02/13 01:43:44;;;;;;;;;;;-1.00;77.90;;;;;;5004440;28;88579;-37
2023/02/13 01:46:10;;;;;;;;;;;-1.00;78.00;;;;;;5004985;28;87830;-37
2023/02/13 01:48:36;;;;;;;;;;;-1.00;77.90;;;;;;5004867;28;87152;-37
2023/02/13 01:51:10;;;;;;;;;;;-1.00;77.90;;;;;;5005078;28;89066;-38
2023/02/13 01:53:42;;;;;;;;;;;-1.00;77.80;;;;;;5004647;28;89434;-37
2023/02/13 01:56:13;;;;;;;;;;;-1.00;77.90;;;;;;5004968;28;87077;-37
2023/02/13 01:58:40;;;;;;;;;;;-1.00;77.90;;;;;;5004601;28;88630;-38
2023/02/13 02:01:06;;;;;;;;;;;-1.00;77.90;;;;;;5004766;28;88581;-38
2023/02/13 02:03:40;;;;;;;;;;;-1.00;77.90;;;;;;5007640;28;87140;-37
2023/02/13 02:06:07;;;;;;;;;;;-1.00;78.00;;;;;;5004296;28;88146;-37
2023/02/13 02:08:33;;;;;;;;;;;-1.00;77.90;;;;;;5004471;28;88183;-38
2023/02/13 02:11:02;;;;;;;;;;;-1.00;77.90;;;;;;5004624;28;89864;-38
2023/02/13 02:13:27;;;;;;;;;;;-1.00;77.90;;;;;;5004050;28;89795;-37
2023/02/13 02:15:53;;;;;;;;;;;-1.00;77.90;;;;;;5004470;28;87084;-37
2023/02/13 02:18:19;;;;;;;;;;;-1.00;77.90;;;;;;5003980;28;88764;-37
2023/02/13 02:21:20;;;;;;;;;;;-1.00;77.90;;;;;;5004138;28;88403;-38
2023/02/13 02:24:04;;;;;;;;;;;-1.00;77.90;;;;;;4962970;28;87057;-38
2023/02/13 02:26:32;;;;;;;;;;;-1.00;77.90;;;;;;5003466;28;88797;-37
2023/02/13 02:29:07;;;;;;;;;;;-1.00;77.90;;;;;;5004480;28;87072;-38
2023/02/13 02:31:51;;;;;;;;;;;-1.00;77.90;;;;;;5004416;28;88414;-38
2023/02/13 02:34:16;;;;;;;;;;;-1.00;77.90;;;;;;5003539;28;89115;-38
2023/02/13 02:36:57;;;;;;;;;;;-1.00;77.90;;;;;;5003852;28;87130;-37
2023/02/13 02:39:30;;;;;;;;;;;-1.10;78.00;;;;;;5004180;28;88510;-37
2023/02/13 02:42:14;;;;;;;;;;;-1.00;77.80;;;;;;5003630;28;89192;-37
2023/02/13 02:44:46;;;;;;;;;;;-1.10;77.90;;;;;;5004678;28;87201;-38
2023/02/13 02:50:25;;;;;;;;;;;-1.00;78.00;;;;;;5006939;28;87216;-38
2023/02/13 02:53:02;;;;;;;;;;;-1.00;77.90;;;;;;5004538;28;87812;-37
2023/02/13 02:55:31;;;;;;;;;;;-1.10;77.90;;;;;;5003476;28;89261;-38
2023/02/13 03:06:43;;;;;;;;;;;-1.10;78.00;;;;;;5002595;28;87407;-37
2023/02/13 03:14:54;;;;;;;;;;;-1.10;78.00;;;;;;5006821;28;87151;-37
2023/02/13 03:22:57;;;;;;;;;;;-1.10;78.00;;;;;;5003661;28;86982;-38
2023/02/13 03:25:34;;;;;;;;;;;-1.10;78.00;;;;;;5003119;28;89271;-37
2023/02/13 03:30:55;;;;;;;;;;;-1.10;78.00;;;;;;5002685;28;87648;-37
2023/02/13 03:33:27;;;;;;;;;;;-1.10;78.00;;;;;;5003026;28;89552;-37
2023/02/13 03:39:09;;;;;;;;;;;-1.10;78.10;;;;;;5002310;28;87220;-38
2023/02/13 03:41:34;;;;;;;;;;;-1.10;78.10;;;;;;5002749;28;87154;-37
2023/02/13 03:44:10;;;;;;;;;;;-1.20;78.20;;;;;;5003054;28;88813;-37
2023/02/13 03:46:38;;;;;;;;;;;-1.20;78.20;;;;;;5003282;28;88769;-37
2023/02/13 03:51:53;;;;;;;;;;;-1.10;78.10;;;;;;5003108;28;87347;-37
2023/02/13 03:59:56;;;;;;;;;;;-1.20;78.10;;;;;;5005242;28;86925;-37
2023/02/13 04:02:24;;;;;;;;;;;-1.20;78.20;;;;;;5002763;28;88375;-37
2023/02/13 04:04:52;;;;;;;;;;;-1.20;78.20;;;;;;5002965;28;87409;-38
2023/02/13 04:07:30;;;;;;;;;;;-1.20;78.20;;;;;;5002055;28;89480;-38
2023/02/13 04:10:01;;;;;;;;;;;-1.20;78.10;;;;;;5002933;28;87043;-38
2023/02/13 04:12:45;;;;;;;;;;;-1.20;78.10;;;;;;5003563;28;88582;-38
2023/02/13 04:15:15;;;;;;;;;;;-1.20;78.10;;;;;;5002546;28;89428;-37
2023/02/13 04:17:47;;;;;;;;;;;-1.20;78.10;;;;;;5002809;28;87156;-37
2023/02/13 04:20:13;;;;;;;;;;;-1.20;78.00;;;;;;5002246;28;88607;-37
2023/02/13 04:22:42;;;;;;;;;;;-1.10;78.00;;;;;;5005215;28;88190;-37
2023/02/13 04:25:09;;;;;;;;;;;-1.10;78.60;;;;;;5002717;28;88647;-37
2023/02/13 04:27:34;;;;;;;;;;;-1.10;78.00;;;;;;5002093;28;89383;-37
2023/02/13 04:30:00;;;;;;;;;;;-1.10;78.10;;;;;;5002524;28;87064;-37
2023/02/13 04:32:25;;;;;;;;;;;-1.20;78.10;;;;;;5002457;28;88646;-37
2023/02/13 04:34:51;;;;;;;;;;;-1.20;78.00;;;;;;5002099;28;89826;-37
2023/02/13 04:37:16;;;;;;;;;;;-1.20;78.00;;;;;;5002965;28;86354;-38
2023/02/13 04:39:42;;;;;;;;;;;-1.10;78.10;;;;;;5002630;28;88110;-38
2023/02/13 04:42:07;;;;;;;;;;;-1.20;78.00;;;;;;5001591;28;88287;-37
2023/02/13 04:44:33;;;;;;;;;;;-1.20;77.90;;;;;;5004380;28;89146;-37
2023/02/13 04:46:58;;;;;;;;;;;-1.20;78.00;;;;;;5001879;28;89251;-37
2023/02/13 04:49:23;;;;;;;;;;;-1.20;78.00;;;;;;5002178;28;87160;-38
2023/02/13 04:51:49;;;;;;;;;;;-1.20;78.00;;;;;;5002290;28;88906;-37
2023/02/13 04:54:14;;;;;;;;;;;-1.20;78.10;;;;;;5002076;28;89447;-37
2023/02/13 04:56:40;;;;;;;;;;;-1.20;78.20;;;;;;5002151;28;87125;-37
2023/02/13 04:59:05;;;;;;;;;;;-1.20;78.10;;;;;;5002386;28;87335;-37
2023/02/13 05:01:31;;;;;;;;;;;-1.10;78.60;;;;;;5002198;28;88772;-37
2023/02/13 05:03:56;;;;;;;;;;;-1.20;78.10;;;;;;5002203;28;87537;-37
2023/02/13 05:06:22;;;;;;;;;;;-1.20;78.00;;;;;;5004166;28;88835;-38
2023/02/13 05:08:47;;;;;;;;;;;-1.20;78.50;;;;;;5001428;28;88153;-37
2023/02/13 05:11:13;;;;;;;;;;;-1.20;77.90;;;;;;5001950;28;89912;-38
2023/02/13 05:13:38;;;;;;;;;;;-1.10;77.90;;;;;;5001737;28;89982;-37
2023/02/13 05:16:04;;;;;;;;;;;-1.10;78.00;;;;;;5002044;28;87013;-37
2023/02/13 05:18:29;;;;;;;;;;;-1.10;77.80;;;;;;5001923;28;88897;-38
2023/02/13 05:23:39;;;;;;;;;;;-1.10;77.80;;;;;;5002063;28;86982;-37
2023/02/13 05:26:04;;;;;;;;;;;-1.10;77.90;;;;;;5004738;28;87363;-38
2023/02/13 05:31:14;;;;;;;;;;;-1.10;77.90;;;;;;5002220;28;87106;-37
2023/02/13 05:33:39;;;;;;;;;;;-1.20;78.00;;;;;;5000900;28;90421;-38
2023/02/13 05:36:05;;;;;;;;;;;-1.20;78.10;;;;;;5001737;28;87235;-37
2023/02/13 05:38:31;;;;;;;;;;;-1.20;78.20;;;;;;5001412;28;89506;-37
2023/02/13 05:40:59;;;;;;;;;;;-1.10;78.00;;;;;;5000898;28;88124;-37
2023/02/13 05:43:25;;;;;;;;;;;-1.10;78.00;;;;;;5001621;28;87096;-37
2023/02/13 05:45:51;;;;;;;;;;;-1.10;77.90;;;;;;5002092;28;87506;-37
2023/02/13 05:48:16;;;;;;;;;;;-1.10;77.90;;;;;;5003991;28;89149;-37
2023/02/13 05:50:42;;;;;;;;;;;-1.10;77.90;;;;;;5002193;28;88623;-37
2023/02/13 05:53:07;;;;;;;;;;;-1.10;77.90;;;;;;5002203;28;89350;-38
2023/02/13 05:55:33;;;;;;;;;;;-1.10;77.90;;;;;;5005214;28;87234;-37
2023/02/13 05:57:58;;;;;;;;;;;-1.10;78.00;;;;;;5004197;28;88885;-37
2023/02/13 06:00:24;;;;;;;;;;;-1.10;77.90;;;;;;5004666;28;89402;-38
2023/02/13 06:02:50;;;;;;;;;;;-1.10;77.90;;;;;;5005189;28;87103;-37
2023/02/13 06:05:15;;;;;;;;;;;-1.10;77.90;;;;;;5004566;28;88753;-37
2023/02/13 06:07:42;;;;;;;;;;;-1.10;77.90;;;;;;5004640;28;89122;-37
2023/02/13 06:10:07;;;;;;;;;;;-1.10;77.80;;;;;;5007657;28;87088;-38
2023/02/13 06:12:33;;;;;;;;;;;-1.10;77.80;;;;;;5004638;28;88106;-37
2023/02/13 06:14:58;;;;;;;;;;;-1.10;78.00;;;;;;5005021;28;86448;-37
2023/02/13 06:17:24;;;;;;;;;;;-1.20;77.90;;;;;;5004617;28;88156;-37
2023/02/13 06:19:49;;;;;;;;;;;-1.10;77.80;;;;;;5004133;28;89160;-38
2023/02/13 06:22:15;;;;;;;;;;;-1.10;77.60;;;;;;5004135;28;88063;-38
2023/02/13 06:24:40;;;;;;;;;;;-1.10;77.60;;;;;;5004493;28;88408;-37
2023/02/13 06:27:06;;;;;;;;;;;-1.10;77.60;;;;;;5004357;28;87134;-38
2023/02/13 06:29:31;;;;;;;;;;;-1.10;77.70;;;;;;5004379;28;87078;-37
2023/02/13 06:31:57;;;;;;;;;;;-1.10;77.70;;;;;;5007093;28;88895;-38
2023/02/13 06:34:23;;;;;;;;;;;-1.10;77.80;;;;;;5004320;28;86988;-37
2023/02/13 06:36:48;;;;;;;;;;;-1.10;77.70;;;;;;5004228;28;87829;-37
2023/02/13 06:39:14;;;;;;;;;;;-1.10;77.70;;;;;;5004163;28;88781;-37
2023/02/13 06:41:39;;;;;;;;;;;-1.10;77.90;;;;;;5004307;28;87139;-38
2023/02/13 06:44:06;;;;;;;;;;;-1.10;77.70;;;;;;5004121;28;89514;-37
2023/02/13 06:46:32;;;;;;;;;;;-1.10;77.70;;;;;;5003276;28;90185;-38
2023/02/13 06:48:57;;;;;;;;;;;-1.10;77.80;;;;;;5004027;28;87186;-38
2023/02/13 06:51:23;;;;;;;;;;;-1.10;77.90;;;;;;5004383;28;86986;-37
2023/02/13 06:53:48;;;;;;;;;;;-1.10;77.90;;;;;;5006277;28;89011;-37
2023/02/13 06:56:14;;;;;;;;;;;-1.10;77.80;;;;;;5004104;28;88736;-37
2023/02/13 06:58:39;;;;;;;;;;;-1.10;77.60;;;;;;5003635;28;89816;-38
2023/02/13 07:01:05;;;;;;;;;;;-1.10;77.70;;;;;;5004216;28;87011;-37
2023/02/13 07:03:30;;;;;;;;;;;-1.10;77.70;;;;;;5004141;28;88841;-37
2023/02/13 07:05:56;;;;;;;;;;;-1.10;77.70;;;;;;5003238;28;89175;-38
2023/02/13 07:08:21;;;;;;;;;;;-1.10;77.80;;;;;;5003549;28;87165;-37
2023/02/13 07:10:47;;;;;;;;;;;-1.00;77.80;;;;;;5003092;28;88575;-37
2023/02/13 07:13:12;;;;;;;;;;;-1.10;77.70;;;;;;5003229;28;89398;-37
2023/02/13 07:15:38;;;;;;;;;;;-1.10;77.80;;;;;;5006560;28;87123;-37
2023/02/13 07:18:04;;;;;;;;;;;-1.10;77.70;;;;;;5003339;28;88516;-38
2023/02/13 07:20:30;;;;;;;;;;;-1.10;77.70;;;;;;5003535;28;87201;-37
2023/02/13 07:22:59;;;;;;;;;;;-1.10;77.80;;;;;;5003611;28;89289;-38
2023/02/13 07:25:25;;;;;;;;;;;-1.00;77.70;;;;;;5003221;28;89390;-38
2023/02/13 07:27:50;;;;;;;;;;;-1.00;77.60;;;;;;5004045;28;86377;-37
2023/02/13 07:30:16;;;;;;;;;;;-1.00;77.60;;;;;;5003473;28;88081;-37
2023/02/13 07:32:41;;;;;;;;;;;-1.00;77.70;;;;;;5003008;28;89682;-37
2023/02/13 07:35:07;;;;;;;;;;;-1.00;77.60;;;;;;5005820;28;88161;-37
2023/02/13 07:37:32;;;;;;;;;;;-1.00;77.50;;;;;;5002890;28;89238;-37
2023/02/13 07:39:58;;;;;;;;;;;-1.00;77.60;;;;;;5003472;28;87132;-37
2023/02/13 07:42:24;;;;;;;;;;;-1.00;77.70;;;;;;5003180;28;89014;-38
2023/02/13 07:44:49;;;;;;;;;;;-1.00;77.90;;;;;;5002761;28;89608;-37
2023/02/13 07:47:15;;;;;;;;;;;-1.00;77.80;;;;;;5003250;28;87158;-37
2023/02/13 07:49:40;;;;;;;;;;;-1.00;77.70;;;;;;5003342;28;88024;-37
2023/02/13 07:52:06;;;;;;;;;;;-1.00;77.70;;;;;;5003304;28;88576;-37
2023/02/13 07:54:31;;;;;;;;;;;-1.00;77.70;;;;;;5003187;28;87198;-37
2023/02/13 07:56:57;;;;;;;;;;;-1.00;77.80;;;;;;5005730;28;89275;-37
2023/02/13 07:59:23;;;;;;;;;;;-1.00;77.80;;;;;;5002401;28;87986;-37
2023/02/13 08:01:48;;;;;;;;;;;-1.00;77.90;;;;;;5002968;28;89533;-37
2023/02/13 08:04:14;;;;;;;;;;;-1.00;77.90;;;;;;5002433;28;89762;-37
2023/02/13 08:06:40;;;;;;;;;;;-1.00;77.70;;;;;;5002774;28;87156;-37
2023/02/13 08:11:53;;;;;;;;;;;-1.00;77.70;;;;;;5002741;28;86952;-37
2023/02/13 08:14:20;;;;;;;;;;;-1.00;77.90;;;;;;5002714;28;87039;-38
2023/02/13 08:16:45;;;;;;;;;;;-1.00;77.80;;;;;;5003005;28;87400;-37
2023/02/13 08:19:11;;;;;;;;;;;-1.00;77.90;;;;;;5005200;28;89417;-37
2023/02/13 08:21:37;;;;;;;;;;;-1.00;77.80;;;;;;5002508;28;88706;-38
2023/02/13 08:24:03;;;;;;;;;;;-1.00;77.80;;;;;;5001694;28;90178;-37
2023/02/13 08:26:30;;;;;;;;;;;-1.00;77.90;;;;;;5002629;28;87050;-38
2023/02/13 08:28:55;;;;;;;;;;;-1.00;77.80;;;;;;5002800;28;87940;-37
2023/02/13 08:31:21;;;;;;;;;;;-1.00;77.80;;;;;;5002406;28;88032;-37
2023/02/13 08:33:46;;;;;;;;;;;-1.00;77.80;;;;;;5002557;28;87126;-37
2023/02/13 08:36:12;;;;;;;;;;;-1.00;77.90;;;;;;5002561;28;87751;-38
2023/02/13 08:38:37;;;;;;;;;;;-1.00;77.90;;;;;;5002270;28;89403;-38
2023/02/13 08:41:03;;;;;;;;;;;-1.00;77.90;;;;;;5005649;28;86427;-37
2023/02/13 08:43:28;;;;;;;;;;;-1.00;78.10;;;;;;5002271;28;88164;-37
2023/02/13 08:45:56;;;;;;;;;;;-1.00;78.00;;;;;;5002627;28;87114;-37
2023/02/13 08:48:22;;;;;;;;;;;-1.00;78.10;;;;;;5001793;28;88680;-38
2023/02/13 08:50:47;;;;;;;;;;;-1.00;78.20;;;;;;5001874;28;89602;-37
2023/02/13 08:53:13;;;;;;;;;;;-1.00;78.10;;;;;;5002432;28;87130;-37
2023/02/13 08:55:38;;;;;;;;;;;-0.90;78.00;;;;;;5002255;28;88695;-38
2023/02/13 08:58:04;;;;;;;;;;;-1.00;78.20;;;;;;5001914;28;89749;-37
2023/02/13 09:00:29;;;;;;;;;;;-1.10;78.00;;;;;;5002264;28;87258;-37
2023/02/13 09:02:59;;;;;;;;;;;-1.10;78.30;;;;;;5004672;28;88759;-37
2023/02/13 09:05:24;;;;;;;;;;;-1.10;78.30;;;;;;5001796;28;86380;-37
2023/02/13 09:07:50;;;;;;;;;;;-1.10;78.30;;;;;;5002134;28;88518;-38
2023/02/13 09:10:15;;;;;;;;;;;-1.10;78.50;;;;;;5001622;28;89501;-37
2023/02/13 09:12:41;;;;;;;;;;;-1.10;78.20;;;;;;5001325;28;87947;-37
2023/02/13 09:15:07;;;;;;;;;;;-1.10;78.50;;;;;;5001951;28;89748;-38
2023/02/13 09:17:32;;;;;;;;;;;-1.10;78.50;;;;;;5001720;28;89666;-37
2023/02/13 09:19:58;;;;;;;;;;;-1.10;78.60;;;;;;5001790;28;87148;-38
2023/02/13 09:22:23;;;;;;;;;;;-1.10;78.70;;;;;;5001929;28;88891;-37
2023/02/13 09:24:48;;;;;;;;;;;-1.20;78.80;;;;;;5004553;28;89270;-37
2023/02/13 09:27:14;;;;;;;;;;;-1.20;78.80;;;;;;5002046;28;89119;-37
2023/02/13 09:29:39;;;;;;;;;;;-1.20;78.80;;;;;;5005455;28;88002;-38
2023/02/13 09:32:05;;;;;;;;;;;-1.10;78.80;;;;;;5005589;28;87024;-37
2023/02/13 09:34:31;;;;;;;;;;;-1.10;78.70;;;;;;5005290;28;88885;-38
2023/02/13 09:36:56;;;;;;;;;;;-1.00;78.70;;;;;;5004145;28;90323;-38
2023/02/13 09:39:22;;;;;;;;;;;-1.00;78.40;;;;;;5005195;28;87117;-37
2023/02/13 09:41:49;;;;;;;;;;;-1.00;78.50;;;;;;5005361;28;87642;-37
2023/02/13 09:44:32;;;;;;;;;;;-1.00;78.50;;;;;;5007573;28;89378;-38
2023/02/13 09:47:13;;;;;;;;;;;-1.00;78.50;;;;;;5005283;28;88773;-38
2023/02/13 09:49:40;;;;;;;;;;;-1.00;78.50;;;;;;5004733;28;89469;-38
2023/02/13 09:52:07;;;;;;;;;;;-1.00;78.60;;;;;;5005172;28;87124;-37
2023/02/13 09:54:34;;;;;;;;;;;-1.00;78.60;;;;;;5005550;28;88898;-38
2023/02/13 09:57:10;;;;;;;;;;;-0.90;78.40;;;;;;5004526;28;88544;-38
2023/02/13 09:59:55;;;;;;;;;;;-1.00;78.60;;;;;;5005378;28;87007;-37
2023/02/13 10:02:40;;;;;;;;;;;-0.90;78.40;;;;;;5004345;28;89032;-38
2023/02/13 10:05:12;;;;;;;;;;;-0.90;78.50;;;;;;5004444;28;89127;-37
2023/02/13 10:07:40;;;;;;;;;;;-0.90;78.50;;;;;;5007936;28;87108;-37
2023/02/13 10:10:21;;;;;;;;;;;-0.90;78.70;;;;;;5004346;28;89402;-37
2023/02/13 10:12:55;;;;;;;;;;;-0.80;78.60;;;;;;5004736;28;87008;-37
2023/02/13 10:15:27;;;;;;;;;;;-0.90;78.60;;;;;;5004785;28;90629;-37
2023/02/13 10:18:02;;;;;;;;;;;-0.90;78.50;;;;;;5004270;28;89107;-37
2023/02/13 10:20:31;;;;;;;;;;;-0.80;78.60;;;;;;5004956;28;86882;-37
2023/02/13 10:22:59;;;;;;;;;;;-0.90;78.60;;;;;;5004129;28;88091;-37
2023/02/13 10:25:30;;;;;;;;;;;-0.90;78.70;;;;;;5004102;28;89028;-37
2023/02/13 10:27:59;;;;;;;;;;;-0.90;78.80;;;;;;5003968;28;88077;-38
2023/02/13 10:30:30;;;;;;;;;;;-0.90;78.90;;;;;;5006921;28;88295;-37
2023/02/13 10:33:18;;;;;;;;;;;-0.80;78.90;;;;;;5004373;28;87123;-37
2023/02/13 10:35:57;;;;;;;;;;;-0.80;78.70;;;;;;5004304;28;89038;-37
2023/02/13 10:38:23;;;;;;;;;;;-0.80;78.50;;;;;;5003536;28;89705;-37
2023/02/13 10:41:15;;;;;;;;;;;-0.80;78.60;;;;;;5004214;28;87108;-38
2023/02/13 10:43:53;;;;;;;;;;;-0.90;78.80;;;;;;5001633;28;87924;-38
2023/02/13 10:46:24;;;;;;;;;;;-0.80;78.90;;;;;;5004159;28;88718;-37
2023/02/13 10:49:22;;;;;;;;;;;-0.80;78.60;;;;;;5004138;28;87038;-37
2023/02/13 10:51:52;;;;;;;;;;;-0.80;78.70;;;;;;4980763;28;88947;-37
2023/02/13 10:54:21;;;;;;;;;;;-0.70;78.80;;;;;;5005490;28;90248;-38
2023/02/13 10:56:56;;;;;;;;;;;-0.70;78.70;;;;;;5003905;28;89639;-37
2023/02/13 10:59:22;;;;;;;;;;;-0.80;78.70;;;;;;5003509;28;89360;-37
2023/02/13 11:01:52;;;;;;;;;;;-0.80;78.80;;;;;;5004159;28;87516;-37
2023/02/13 11:04:18;;;;;;;;;;;-0.70;78.70;;;;;;5003875;28;90145;-37
2023/02/13 11:07:00;;;;;;;;;;;-0.70;78.70;;;;;;5002515;28;89631;-38
2023/02/13 11:09:25;;;;;;;;;;;-0.70;78.70;;;;;;5003718;28;87006;-38
2023/02/13 11:11:51;;;;;;;;;;;-0.70;78.90;;;;;;5004243;28;88927;-37
2023/02/13 11:14:17;;;;;;;;;;;-0.70;79.10;;;;;;5003323;28;89669;-37
2023/02/13 11:17:02;;;;;;;;;;;-0.60;78.70;;;;;;5006735;28;87081;-37
2023/02/13 11:19:32;;;;;;;;;;;-0.60;79.10;;;;;;5002485;28;90017;-37
2023/02/13 11:22:00;;;;;;;;;;;-0.60;78.60;;;;;;5003608;28;86942;-37
2023/02/13 11:24:27;;;;;;;;;;;-0.60;78.80;;;;;;5003590;28;87716;-37
2023/02/13 11:26:57;;;;;;;;;;;-0.60;78.80;;;;;;5003169;28;89390;-37
2023/02/13 11:29:28;;;;;;;;;;;-0.60;78.90;;;;;;5003568;28;87063;-37
2023/02/13 11:32:00;;;;;;;;;;;-0.50;78.70;;;;;;5003112;28;88347;-37
2023/02/13 11:34:28;;;;;;;;;;;-0.50;78.80;;;;;;5003037;28;89257;-38
2023/02/13 11:37:12;;;;;;;;;;;-0.50;78.80;;;;;;5003935;28;86357;-37
2023/02/13 11:39:40;;;;;;;;;;;-0.50;78.80;;;;;;5005890;28;88195;-37
2023/02/13 11:42:12;;;;;;;;;;;-0.50;78.80;;;;;;5002810;28;87245;-38
2023/02/13 11:44:39;;;;;;;;;;;-0.50;79.00;;;;;;5002601;28;87914;-37
2023/02/13 11:47:05;;;;;;;;;;;-0.50;78.90;;;;;;5002814;28;89555;-38
2023/02/13 11:49:34;;;;;;;;;;;-0.50;79.00;;;;;;5003353;28;87018;-37
2023/02/13 11:52:04;;;;;;;;;;;-0.50;79.00;;;;;;5002361;28;88919;-37
2023/02/13 11:54:38;;;;;;;;;;;-0.50;79.10;;;;;;5002746;28;89860;-38
2023/02/13 11:57:22;;;;;;;;;;;-0.50;79.10;;;;;;5003017;28;87331;-38
2023/02/13 11:59:48;;;;;;;;;;;-0.50;79.20;;;;;;5005552;28;88614;-38
2023/02/13 12:02:14;;;;;;;;;;;-0.50;79.00;;;;;;5003553;28;86263;-38
2023/02/13 12:04:39;;;;;;;;;;;-0.50;79.30;;;;;;5002917;28;87598;-38
2023/02/13 12:07:20;;;;;;;;;;;-0.50;79.20;;;;;;5002380;28;89510;-38
2023/02/13 12:09:47;;;;;;;;;;;-0.50;79.20;;;;;;5002301;28;88255;-37
2023/02/13 12:12:21;;;;;;;;;;;-0.40;79.10;;;;;;5002769;28;89587;-38
2023/02/13 12:14:47;;;;;;;;;;;-0.50;79.40;;;;;;5002799;28;89245;-37
2023/02/13 12:17:24;;;;;;;;;;;-0.50;79.40;;;;;;5003117;28;87071;-37
2023/02/13 12:19:50;;;;;;;;;;;-0.40;79.40;;;;;;5002533;28;89236;-38
2023/02/13 12:22:21;;;;;;;;;;;-0.40;79.50;;;;;;5005433;28;88924;-38
2023/02/13 12:24:54;;;;;;;;;;;-0.40;79.50;;;;;;5002774;28;87435;-38
2023/02/13 12:27:25;;;;;;;;;;;-0.40;79.50;;;;;;5002800;28;89025;-38
2023/02/13 12:29:51;;;;;;;;;;;-0.40;79.50;;;;;;5002459;28;87154;-38
2023/02/13 12:32:22;;;;;;;;;;;-0.40;79.80;;;;;;5003006;28;87489;-38
2023/02/13 12:35:00;;;;;;;;;;;-0.50;79.70;;;;;;5001625;28;90133;-38
2023/02/13 12:37:34;;;;;;;;;;;-0.50;79.80;;;;;;5002305;28;87058;-38
2023/02/13 12:40:18;;;;;;;;;;;-0.40;80.00;;;;;;5002284;28;87799;-38
2023/02/13 12:43:02;;;;;;;;;;;-0.40;79.80;;;;;;5001874;28;88336;-37
2023/02/13 12:45:32;;;;;;;;;;;-0.40;79.80;;;;;;5005484;28;87249;-38
2023/02/13 12:48:00;;;;;;;;;;;-0.40;80.00;;;;;;5002070;28;89609;-38
2023/02/13 12:50:35;;;;;;;;;;;-0.30;80.00;;;;;;5002155;28;87030;-38
2023/02/13 12:53:15;;;;;;;;;;;-0.30;80.00;;;;;;5002731;28;88752;-38
2023/02/13 12:55:44;;;;;;;;;;;-0.40;79.90;;;;;;5001962;28;89060;-38
2023/02/13 12:58:24;;;;;;;;;;;-0.40;80.10;;;;;;5002217;28;86908;-38
2023/02/13 13:00:49;;;;;;;;;;;-0.50;80.30;;;;;;5001739;28;88548;-38
2023/02/13 13:03:34;;;;;;;;;;;-0.40;80.70;;;;;;5005132;28;89147;-38
2023/02/13 13:06:08;;;;;;;;;;;-0.50;80.70;;;;;;5005095;28;87146;-38
2023/02/13 13:08:46;;;;;;;;;;;-0.40;80.90;;;;;;5008289;28;88711;-38
2023/02/13 13:11:20;;;;;;;;;;;-0.40;80.50;;;;;;5005767;28;87097;-38
2023/02/13 13:14:08;;;;;;;;;;;-0.40;81.00;;;;;;5005611;28;89531;-38
2023/02/13 13:16:44;;;;;;;;;;;-0.30;80.70;;;;;;5004962;28;89664;-38
2023/02/13 13:19:28;;;;;;;;;;;-0.40;80.80;;;;;;5005877;28;86418;-38
2023/02/13 13:21:59;;;;;;;;;;;-0.40;81.20;;;;;;5005453;28;88554;-38
2023/02/13 13:24:43;;;;;;;;;;;-0.40;81.20;;;;;;5004888;28;89545;-38
2023/02/13 13:27:34;;;;;;;;;;;-0.40;81.50;;;;;;5004693;28;88197;-38
2023/02/13 13:30:02;;;;;;;;;;;-0.50;81.80;;;;;;5003394;28;88302;-38
2023/02/13 13:32:29;;;;;;;;;;;-0.50;82.00;;;;;;5008118;28;87879;-37
2023/02/13 13:34:55;;;;;;;;;;;-0.40;81.50;;;;;;5005302;28;88678;-38
2023/02/13 13:37:28;;;;;;;;;;;-0.30;81.60;;;;;;5004801;28;88010;-38
2023/02/13 13:39:59;;;;;;;;;;;-0.30;81.30;;;;;;5005586;28;87008;-37
2023/02/13 13:42:30;;;;;;;;;;;-0.20;81.30;;;;;;5005042;28;88619;-38
2023/02/13 13:45:07;;;;;;;;;;;-0.20;81.00;;;;;;5005479;28;87476;-38
2023/02/13 13:47:51;;;;;;;;;;;-0.20;81.10;;;;;;5005068;28;87134;-38
2023/02/13 13:50:21;;;;;;;;;;;-0.10;81.10;;;;;;5004993;28;88414;-38
2023/02/13 13:53:07;;;;;;;;;;;-0.20;80.90;;;;;;5004082;28;90625;-38
2023/02/13 13:55:45;;;;;;;;;;;-0.10;80.90;;;;;;5007490;28;87040;-38
2023/02/13 13:58:20;;;;;;;;;;;-0.10;81.20;;;;;;5004445;28;88050;-38
2023/02/13 14:01:06;;;;;;;;;;;-0.10;81.20;;;;;;5005314;28;86989;-38
2023/02/13 14:03:35;;;;;;;;;;;-0.10;81.00;;;;;;5004878;28;87703;-38
2023/02/13 14:06:05;;;;;;;;;;;-0.10;80.90;;;;;;5004001;28;89353;-38
2023/02/13 14:08:39;;;;;;;;;;;-0.10;80.90;;;;;;5004689;28;87005;-38
2023/02/13 14:11:06;;;;;;;;;;;-0.10;81.00;;;;;;5005259;28;87346;-38
2023/02/13 14:13:39;;;;;;;;;;;0.00;81.10;;;;;;5003571;28;89144;-38
2023/02/13 14:16:24;;;;;;;;;;;0.00;81.10;;;;;;5007498;28;87069;-38
2023/02/13 14:18:50;;;;;;;;;;;0.00;81.60;;;;;;5004379;28;90573;-38
2023/02/13 14:21:21;;;;;;;;;;;0.00;81.10;;;;;;5004619;28;87227;-38
2023/02/13 14:23:49;;;;;;;;;;;0.00;81.20;;;;;;5004886;28;87340;-38
2023/02/13 14:26:15;;;;;;;;;;;0.00;81.30;;;;;;5004203;28;89285;-38
2023/02/13 14:28:46;;;;;;;;;;;-0.10;81.60;;;;;;5004365;28;87195;-37
2023/02/13 14:31:31;;;;;;;;;;;-0.10;81.60;;;;;;5004402;28;88780;-37
2023/02/13 14:34:15;;;;;;;;;;;-0.10;81.80;;;;;;5003870;28;89441;-38
2023/02/13 14:36:43;;;;;;;;;;;0.00;81.60;;;;;;5004764;28;86312;-38
2023/02/13 14:39:28;;;;;;;;;;;0.00;81.60;;;;;;5006813;28;88045;-38
2023/02/13 14:41:53;;;;;;;;;;;0.00;81.60;;;;;;5004087;28;87149;-38
2023/02/13 14:44:34;;;;;;;;;;;0.00;81.70;;;;;;5003419;28;88120;-38
2023/02/13 14:47:01;;;;;;;;;;;0.00;81.60;;;;;;5003798;28;89564;-38
2023/02/13 14:49:35;;;;;;;;;;;0.00;81.80;;;;;;5004468;28;87022;-38
2023/02/13 14:52:05;;;;;;;;;;;0.00;81.70;;;;;;5004187;28;87006;-38
2023/02/13 14:54:30;;;;;;;;;;;0.10;81.70;;;;;;5003638;28;89057;-37
2023/02/13 14:57:05;;;;;;;;;;;0.00;82.20;;;;;;5004306;28;87806;-38
2023/02/13 14:59:34;;;;;;;;;;;0.00;81.80;;;;;;5003921;28;88685;-38
2023/02/13 15:02:02;;;;;;;;;;;0.10;82.20;;;;;;5006861;28;88694;-38
2023/02/13 15:04:39;;;;;;;;;;;0.10;82.10;;;;;;5004015;28;87653;-38
2023/02/13 15:07:05;;;;;;;;;;;0.10;82.00;;;;;;5002843;28;89577;-38
2023/02/13 15:09:37;;;;;;;;;;;0.10;82.20;;;;;;5003197;28;88059;-38
2023/02/13 15:12:03;;;;;;;;;;;0.10;82.30;;;;;;5003695;28;89577;-38
2023/02/13 15:14:30;;;;;;;;;;;0.10;82.40;;;;;;5003344;28;89637;-38
2023/02/13 15:16:56;;;;;;;;;;;0.10;82.50;;;;;;5003693;28;87104;-38